createdAt,value
2022-08-26T00:01:56.701Z,22.22
2022-08-26T00:06:59.695Z,22.13
2022-08-26T00:12:02.706Z,22.07
2022-08-26T00:17:05.720Z,22.03
2022-08-26T00:22:11.620Z,21.94
2022-08-26T00:27:14.523Z,21.94
2022-08-26T00:32:17.248Z,21.84
2022-08-26T00:37:20.516Z,21.78
2022-08-26T00:42:23.308Z,21.76
2022-08-26T00:47:34.430Z,21.75
2022-08-26T00:52:37.941Z,21.76
2022-08-26T00:57:42.281Z,21.75
2022-08-26T01:02:48.179Z,21.73
2022-08-26T01:07:52.379Z,21.70
2022-08-26T01:13:00.661Z,21.66
2022-08-26T01:18:06.187Z,21.60
2022-08-26T01:23:11.745Z,21.56
2022-08-26T01:28:21.785Z,21.54
2022-08-26T01:33:40.027Z,21.52
2022-08-26T01:38:45.519Z,21.45
2022-08-26T01:43:52.875Z,21.26
2022-08-26T01:48:58.694Z,21.22
2022-08-26T01:54:02.040Z,21.27
2022-08-26T01:59:09.360Z,21.01
2022-08-26T02:04:24.462Z,20.88
2022-08-26T02:09:27.378Z,20.80
2022-08-26T02:14:34.793Z,20.76
2022-08-26T02:19:41.985Z,20.69
2022-08-26T02:25:16.270Z,20.69
2022-08-26T02:30:26.141Z,20.70
2022-08-26T02:35:33.760Z,20.70
2022-08-26T02:40:41.091Z,20.71
2022-08-26T02:45:44.943Z,20.74
2022-08-26T02:50:48.833Z,20.75
2022-08-26T02:55:51.836Z,20.75
2022-08-26T03:00:54.761Z,20.71
2022-08-26T03:05:58.162Z,20.67
2022-08-26T03:11:01.650Z,20.58
2022-08-26T03:16:06.045Z,20.50
2022-08-26T03:21:12.077Z,20.44
2022-08-26T03:26:16.207Z,20.46
2022-08-26T03:31:19.022Z,20.54
2022-08-26T03:36:27.749Z,20.62
2022-08-26T03:41:33.007Z,20.64
2022-08-26T03:46:35.882Z,20.59
2022-08-26T03:51:39.113Z,20.58
2022-08-26T03:56:42.002Z,20.52
2022-08-26T04:01:45.429Z,20.31
2022-08-26T04:06:48.488Z,20.07
2022-08-26T04:11:52.898Z,19.90
2022-08-26T04:16:56.341Z,19.84
2022-08-26T04:22:00.180Z,19.81
2022-08-26T04:27:03.792Z,19.80
2022-08-26T04:32:08.874Z,19.90
2022-08-26T04:37:13.309Z,20.01
2022-08-26T04:42:19.950Z,20.16
2022-08-26T04:47:32.206Z,20.30
2022-08-26T04:52:36.904Z,20.40
2022-08-26T04:57:40.664Z,20.47
2022-08-26T05:02:43.839Z,20.54
2022-08-26T05:07:46.618Z,20.63
2022-08-26T05:12:49.805Z,20.74
2022-08-26T05:17:53.089Z,20.81
2022-08-26T05:22:55.818Z,21.06
2022-08-26T05:27:58.522Z,21.48
2022-08-26T05:33:01.983Z,22.33
2022-08-26T05:38:12.470Z,23.39
2022-08-26T05:43:17.080Z,24.93
2022-08-26T05:48:24.417Z,25.99
2022-08-26T05:53:27.924Z,27.05
2022-08-26T05:58:31.056Z,27.73
2022-08-26T06:03:37.487Z,27.32
2022-08-26T06:08:40.991Z,27.32
2022-08-26T06:13:44.827Z,27.71
2022-08-26T06:18:48.451Z,28.10
2022-08-26T06:24:12.447Z,28.35
2022-08-26T06:29:24.340Z,28.34
2022-08-26T06:34:29.858Z,28.03
2022-08-26T06:39:34.176Z,27.29
2022-08-26T06:44:37.187Z,26.98
2022-08-26T06:49:44.293Z,27.50
2022-08-26T06:54:47.616Z,27.48
2022-08-26T06:59:51.185Z,27.89
2022-08-26T07:04:54.096Z,29.11
2022-08-26T07:09:59.971Z,30.09
2022-08-26T07:15:03.024Z,30.64
2022-08-26T07:20:08.532Z,31.38
2022-08-26T07:25:11.536Z,31.87
2022-08-26T07:30:15.007Z,32.26
2022-08-26T07:35:18.204Z,32.63
2022-08-26T07:40:22.397Z,32.94
2022-08-26T07:45:25.862Z,33.45
2022-08-26T07:50:49.504Z,33.94
2022-08-26T07:55:52.027Z,33.99
2022-08-26T08:00:55.351Z,33.29
2022-08-26T08:05:58.079Z,32.61
2022-08-26T08:11:01.551Z,31.76
2022-08-26T08:16:05.885Z,31.47
2022-08-26T08:21:22.084Z,31.10
2022-08-26T08:26:27.718Z,31.00
2022-08-26T08:31:55.864Z,32.24
2022-08-26T08:36:58.082Z,33.67
2022-08-26T08:42:19.139Z,34.27
2022-08-26T08:47:34.296Z,34.54
2022-08-26T08:52:39.245Z,33.97
2022-08-26T08:58:03.789Z,34.92
2022-08-26T09:03:19.741Z,35.47
2022-08-26T09:08:28.505Z,34.53
2022-08-26T09:13:31.749Z,33.72
2022-08-26T09:18:57.372Z,33.24
2022-08-26T09:24:00.913Z,32.97
2022-08-26T09:29:16.083Z,33.02
2022-08-26T09:34:19.089Z,32.70
2022-08-26T09:39:27.859Z,33.90
2022-08-26T09:44:32.054Z,36.36
2022-08-26T09:49:41.160Z,37.54
2022-08-26T09:54:46.111Z,37.52
2022-08-26T09:59:49.691Z,37.90
2022-08-26T10:04:55.789Z,37.37
2022-08-26T10:09:59.477Z,36.46
2022-08-26T10:15:10.650Z,36.33
2022-08-26T10:20:24.068Z,37.43
2022-08-26T10:25:33.502Z,39.33
2022-08-26T10:31:00.860Z,40.22
2022-08-26T10:36:30.272Z,40.72
2022-08-26T10:41:40.912Z,39.94
2022-08-26T10:46:58.983Z,38.36
2022-08-26T10:52:19.859Z,36.98
2022-08-26T10:57:34.117Z,35.89
2022-08-26T11:02:47.085Z,35.17
2022-08-26T11:08:13.781Z,34.82
2022-08-26T11:13:16.547Z,34.34
2022-08-26T11:18:41.230Z,34.00
2022-08-26T11:23:50.252Z,33.86
2022-08-26T11:28:53.679Z,33.72
2022-08-26T11:34:39.438Z,34.03
2022-08-26T11:39:54.967Z,35.89
2022-08-26T11:45:03.543Z,37.90
2022-08-26T11:50:12.890Z,40.37
2022-08-26T11:55:17.290Z,42.90
2022-08-26T12:00:33.291Z,44.35
2022-08-26T12:05:44.582Z,45.93
2022-08-26T12:10:50.848Z,47.11
2022-08-26T12:15:57.310Z,48.21
2022-08-26T12:21:24.406Z,48.90
2022-08-26T12:26:35.338Z,48.57
2022-08-26T12:31:44.130Z,46.88
2022-08-26T12:36:55.950Z,45.40
2022-08-26T12:42:03.296Z,44.67
2022-08-26T12:47:40.080Z,42.79
2022-08-26T12:53:12.490Z,40.35
2022-08-26T12:58:15.646Z,38.62
2022-08-26T13:03:46.153Z,37.56
2022-08-26T13:09:10.360Z,36.84
2022-08-26T13:14:23.834Z,36.46
2022-08-26T13:19:27.346Z,36.62
2022-08-26T13:24:34.533Z,36.84
2022-08-26T13:29:37.542Z,37.50
2022-08-26T13:34:40.630Z,38.66
2022-08-26T13:39:43.560Z,39.55
2022-08-26T13:44:50.860Z,40.64
2022-08-26T13:49:53.870Z,42.74
2022-08-26T13:54:56.881Z,44.13
2022-08-26T13:59:59.887Z,44.12
2022-08-26T14:05:03.094Z,42.73
2022-08-26T14:10:07.234Z,41.39
2022-08-26T14:15:10.832Z,40.19
2022-08-26T14:20:19.083Z,38.97
2022-08-26T14:25:22.907Z,37.93
2022-08-26T14:30:26.014Z,37.65
2022-08-26T14:35:31.070Z,37.59
2022-08-26T14:40:37.534Z,37.87
2022-08-26T14:45:44.360Z,39.92
2022-08-26T14:50:47.365Z,41.93
2022-08-26T14:55:50.688Z,43.31
2022-08-26T15:00:53.581Z,44.33
2022-08-26T15:05:56.955Z,45.06
2022-08-26T15:10:59.902Z,45.49
2022-08-26T15:16:03.161Z,45.73
2022-08-26T15:21:07.505Z,45.86
2022-08-26T15:26:12.174Z,45.79
2022-08-26T15:31:15.663Z,45.54
2022-08-26T15:36:18.835Z,45.32
2022-08-26T15:41:22.407Z,45.14
2022-08-26T15:46:25.525Z,44.76
2022-08-26T15:51:36.011Z,44.43
2022-08-26T15:56:51.901Z,44.01
2022-08-26T16:01:56.229Z,42.66
2022-08-26T16:06:59.602Z,40.49
2022-08-26T16:12:02.866Z,38.68
2022-08-26T16:17:06.024Z,37.22
2022-08-26T16:22:09.395Z,36.05
2022-08-26T16:27:13.370Z,35.06
2022-08-26T16:32:16.376Z,34.19
2022-08-26T16:37:19.382Z,33.55
2022-08-26T16:42:22.880Z,33.06
2022-08-26T16:47:26.590Z,32.56
2022-08-26T16:52:30.351Z,32.07
2022-08-26T16:57:37.558Z,31.61
2022-08-26T17:02:41.961Z,31.12
2022-08-26T17:07:45.002Z,30.64
2022-08-26T17:12:48.315Z,30.16
2022-08-26T17:17:52.656Z,29.68
2022-08-26T17:22:56.624Z,29.23
2022-08-26T17:27:59.779Z,28.76
2022-08-26T17:33:11.046Z,28.29
2022-08-26T17:38:14.199Z,27.83
2022-08-26T17:43:17.965Z,27.37
2022-08-26T17:48:20.658Z,26.96
2022-08-26T17:53:24.711Z,26.67
2022-08-26T17:58:27.456Z,26.46
2022-08-26T18:03:32.321Z,26.26
2022-08-26T18:08:35.212Z,26.11
2022-08-26T18:13:38.595Z,26.01
2022-08-26T18:18:53.581Z,25.91
2022-08-26T18:23:57.019Z,25.75
2022-08-26T18:29:00.523Z,25.57
2022-08-26T18:34:03.950Z,25.42
2022-08-26T18:39:08.425Z,25.29
2022-08-26T18:44:13.980Z,25.18
2022-08-26T18:49:19.086Z,25.04
2022-08-26T18:54:22.554Z,24.96
2022-08-26T18:59:29.493Z,24.90
2022-08-26T19:04:34.115Z,24.79
2022-08-26T19:09:37.179Z,24.64
2022-08-26T19:14:41.325Z,24.44
2022-08-26T19:19:44.068Z,24.21
2022-08-26T19:24:48.347Z,23.98
2022-08-26T19:29:51.377Z,23.80
2022-08-26T19:34:54.456Z,23.64
2022-08-26T19:39:57.303Z,23.50
2022-08-26T19:45:24.346Z,23.35
2022-08-26T19:50:30.711Z,23.21
2022-08-26T19:55:33.846Z,23.07
2022-08-26T20:00:39.853Z,22.92
2022-08-26T20:05:42.566Z,22.78
2022-08-26T20:10:46.807Z,22.64
2022-08-26T20:15:49.576Z,22.50
2022-08-26T20:21:12.250Z,22.38
2022-08-26T20:26:15.153Z,22.26
2022-08-26T20:31:19.584Z,22.15
2022-08-26T20:36:26.993Z,22.05
2022-08-26T20:41:30.019Z,21.92
2022-08-26T20:46:34.850Z,21.80
2022-08-26T20:51:37.970Z,21.65
2022-08-26T20:56:40.979Z,21.51
2022-08-26T21:01:44.515Z,21.80
2022-08-26T21:06:52.438Z,22.84
2022-08-26T21:11:56.347Z,22.85
2022-08-26T21:16:59.867Z,22.10
2022-08-26T21:22:02.773Z,21.63
2022-08-26T21:27:05.676Z,21.96
2022-08-26T21:32:08.724Z,22.90
2022-08-26T21:37:16.666Z,22.63
2022-08-26T21:42:21.023Z,22.54
2022-08-26T21:47:24.718Z,22.47
2022-08-26T21:52:27.834Z,22.42
2022-08-26T21:57:32.629Z,22.38
2022-08-26T22:02:37.192Z,22.32
2022-08-26T22:07:40.283Z,22.24
2022-08-26T22:12:43.488Z,22.09
2022-08-26T22:17:46.805Z,21.84
2022-08-26T22:22:49.707Z,21.66
2022-08-26T22:27:52.817Z,21.56
2022-08-26T22:32:55.823Z,21.44
2022-08-26T22:37:59.860Z,21.51
2022-08-26T22:43:04.810Z,21.39
2022-08-26T22:48:08.173Z,21.35
2022-08-26T22:53:11.949Z,21.50
2022-08-26T22:58:17.516Z,22.32
2022-08-26T23:03:20.855Z,22.88
2022-08-26T23:08:27.623Z,23.21
2022-08-26T23:13:30.635Z,23.16
2022-08-26T23:18:33.645Z,22.59
2022-08-26T23:23:38.107Z,22.15
2022-08-26T23:28:41.095Z,22.08
2022-08-26T23:34:02.742Z,22.21
2022-08-26T23:39:06.356Z,22.21
2022-08-26T23:44:09.257Z,21.61
2022-08-26T23:49:12.266Z,21.21
2022-08-26T23:54:16.192Z,21.81
2022-08-26T23:59:19.301Z,22.46
